sensor_id;sensor_type;location;lat;lon;timestamp;P1;durP1;ratioP1;P2;durP2;ratioP2
47009;SDS011;59230;54.164;-3.124;2023-07-29T00:00:49;18.85;;;3.67;;
47009;SDS011;59230;54.164;-3.124;2023-07-29T00:03:14;26.20;;;4.25;;
47009;SDS011;59230;54.164;-3.124;2023-07-29T00:05:40;25.15;;;5.03;;
47009;SDS011;59230;54.164;-3.124;2023-07-29T00:08:06;19.33;;;3.78;;
47009;SDS011;59230;54.164;-3.124;2023-07-29T00:10:32;27.98;;;3.50;;
47009;SDS011;59230;54.164;-3.124;2023-07-29T00:12:58;22.45;;;4.65;;
47009;SDS011;59230;54.164;-3.124;2023-07-29T00:15:23;16.15;;;4.15;;
47009;SDS011;59230;54.164;-3.124;2023-07-29T00:17:49;18.90;;;5.22;;
47009;SDS011;59230;54.164;-3.124;2023-07-29T00:20:14;22.33;;;4.03;;
47009;SDS011;59230;54.164;-3.124;2023-07-29T00:22:41;24.42;;;4.50;;
47009;SDS011;59230;54.164;-3.124;2023-07-29T00:25:06;17.55;;;4.15;;
47009;SDS011;59230;54.164;-3.124;2023-07-29T00:27:32;26.40;;;4.57;;
47009;SDS011;59230;54.164;-3.124;2023-07-29T00:29:57;26.13;;;4.35;;
47009;SDS011;59230;54.164;-3.124;2023-07-29T00:32:23;24.27;;;4.05;;
47009;SDS011;59230;54.164;-3.124;2023-07-29T00:34:48;25.92;;;4.25;;
47009;SDS011;59230;54.164;-3.124;2023-07-29T00:37:13;24.25;;;4.05;;
47009;SDS011;59230;54.164;-3.124;2023-07-29T00:39:39;35.13;;;4.88;;
47009;SDS011;59230;54.164;-3.124;2023-07-29T00:42:04;33.08;;;5.72;;
47009;SDS011;59230;54.164;-3.124;2023-07-29T00:44:30;19.08;;;4.05;;
47009;SDS011;59230;54.164;-3.124;2023-07-29T00:46:58;25.42;;;4.95;;
47009;SDS011;59230;54.164;-3.124;2023-07-29T00:49:26;31.95;;;4.13;;
47009;SDS011;59230;54.164;-3.124;2023-07-29T00:51:51;25.40;;;4.38;;
47009;SDS011;59230;54.164;-3.124;2023-07-29T00:54:17;33.60;;;5.30;;
47009;SDS011;59230;54.164;-3.124;2023-07-29T00:56:42;31.00;;;5.18;;
47009;SDS011;59230;54.164;-3.124;2023-07-29T00:59:08;25.77;;;5.20;;
47009;SDS011;59230;54.164;-3.124;2023-07-29T01:01:33;20.60;;;4.75;;
47009;SDS011;59230;54.164;-3.124;2023-07-29T01:04:04;31.63;;;4.97;;
47009;SDS011;59230;54.164;-3.124;2023-07-29T01:06:50;24.30;;;4.63;;
47009;SDS011;59230;54.164;-3.124;2023-07-29T01:09:41;32.83;;;4.57;;
47009;SDS011;59230;54.164;-3.124;2023-07-29T01:17:23;28.48;;;4.97;;
47009;SDS011;59230;54.164;-3.124;2023-07-29T01:22:35;28.98;;;5.10;;
47009;SDS011;59230;54.164;-3.124;2023-07-29T01:25:01;26.80;;;4.70;;
47009;SDS011;59230;54.164;-3.124;2023-07-29T01:27:27;32.65;;;5.00;;
47009;SDS011;59230;54.164;-3.124;2023-07-29T01:29:53;24.67;;;4.82;;
47009;SDS011;59230;54.164;-3.124;2023-07-29T01:32:25;24.63;;;4.60;;
47009;SDS011;59230;54.164;-3.124;2023-07-29T01:35:07;32.72;;;5.03;;
47009;SDS011;59230;54.164;-3.124;2023-07-29T01:37:35;28.08;;;4.43;;
47009;SDS011;59230;54.164;-3.124;2023-07-29T01:40:02;30.63;;;5.25;;
47009;SDS011;59230;54.164;-3.124;2023-07-29T01:42:29;23.38;;;4.68;;
47009;SDS011;59230;54.164;-3.124;2023-07-29T01:44:56;28.70;;;4.30;;
47009;SDS011;59230;54.164;-3.124;2023-07-29T01:47:21;22.38;;;4.32;;
47009;SDS011;59230;54.164;-3.124;2023-07-29T01:49:47;29.52;;;4.63;;
47009;SDS011;59230;54.164;-3.124;2023-07-29T01:52:13;23.33;;;4.95;;
47009;SDS011;59230;54.164;-3.124;2023-07-29T01:54:38;31.38;;;4.78;;
47009;SDS011;59230;54.164;-3.124;2023-07-29T01:57:04;28.88;;;4.68;;
47009;SDS011;59230;54.164;-3.124;2023-07-29T01:59:29;25.05;;;4.90;;
47009;SDS011;59230;54.164;-3.124;2023-07-29T02:01:55;32.45;;;5.28;;
47009;SDS011;59230;54.164;-3.124;2023-07-29T02:04:20;38.40;;;6.00;;
47009;SDS011;59230;54.164;-3.124;2023-07-29T02:06:45;26.33;;;4.80;;
47009;SDS011;59230;54.164;-3.124;2023-07-29T02:09:11;28.85;;;4.50;;
47009;SDS011;59230;54.164;-3.124;2023-07-29T02:11:36;35.85;;;5.50;;
47009;SDS011;59230;54.164;-3.124;2023-07-29T02:14:02;31.23;;;5.68;;
47009;SDS011;59230;54.164;-3.124;2023-07-29T02:16:28;28.75;;;5.38;;
47009;SDS011;59230;54.164;-3.124;2023-07-29T02:18:54;27.52;;;4.50;;
47009;SDS011;59230;54.164;-3.124;2023-07-29T02:21:19;29.65;;;4.82;;
47009;SDS011;59230;54.164;-3.124;2023-07-29T02:23:45;24.00;;;4.65;;
47009;SDS011;59230;54.164;-3.124;2023-07-29T02:26:10;33.30;;;5.18;;
47009;SDS011;59230;54.164;-3.124;2023-07-29T02:28:36;48.17;;;5.93;;
47009;SDS011;59230;54.164;-3.124;2023-07-29T02:33:42;28.75;;;4.93;;
47009;SDS011;59230;54.164;-3.124;2023-07-29T02:36:08;35.83;;;5.07;;
47009;SDS011;59230;54.164;-3.124;2023-07-29T02:38:33;42.92;;;5.95;;
47009;SDS011;59230;54.164;-3.124;2023-07-29T02:40:59;38.80;;;5.70;;
47009;SDS011;59230;54.164;-3.124;2023-07-29T02:43:24;43.60;;;6.03;;
47009;SDS011;59230;54.164;-3.124;2023-07-29T02:45:50;29.63;;;5.78;;
47009;SDS011;59230;54.164;-3.124;2023-07-29T02:48:15;42.50;;;7.03;;
47009;SDS011;59230;54.164;-3.124;2023-07-29T02:50:40;40.72;;;7.38;;
47009;SDS011;59230;54.164;-3.124;2023-07-29T02:53:06;37.50;;;6.57;;
47009;SDS011;59230;54.164;-3.124;2023-07-29T02:55:31;42.28;;;5.65;;
47009;SDS011;59230;54.164;-3.124;2023-07-29T02:57:56;48.67;;;6.88;;
47009;SDS011;59230;54.164;-3.124;2023-07-29T03:00:22;33.95;;;5.60;;
47009;SDS011;59230;54.164;-3.124;2023-07-29T03:02:47;36.47;;;5.80;;
47009;SDS011;59230;54.164;-3.124;2023-07-29T03:05:13;49.00;;;7.03;;
47009;SDS011;59230;54.164;-3.124;2023-07-29T03:07:38;52.95;;;6.38;;
47009;SDS011;59230;54.164;-3.124;2023-07-29T03:10:04;46.10;;;7.90;;
47009;SDS011;59230;54.164;-3.124;2023-07-29T03:12:30;48.83;;;6.45;;
47009;SDS011;59230;54.164;-3.124;2023-07-29T03:14:56;46.17;;;7.28;;
47009;SDS011;59230;54.164;-3.124;2023-07-29T03:17:21;48.17;;;6.97;;
47009;SDS011;59230;54.164;-3.124;2023-07-29T03:19:47;47.03;;;6.78;;
47009;SDS011;59230;54.164;-3.124;2023-07-29T03:22:12;48.42;;;6.43;;
47009;SDS011;59230;54.164;-3.124;2023-07-29T03:24:37;53.63;;;7.72;;
47009;SDS011;59230;54.164;-3.124;2023-07-29T03:27:03;55.63;;;7.32;;
47009;SDS011;59230;54.164;-3.124;2023-07-29T03:29:29;46.60;;;6.75;;
47009;SDS011;59230;54.164;-3.124;2023-07-29T03:31:54;48.55;;;8.88;;
47009;SDS011;59230;54.164;-3.124;2023-07-29T03:34:20;45.42;;;6.82;;
47009;SDS011;59230;54.164;-3.124;2023-07-29T03:36:45;53.55;;;6.70;;
47009;SDS011;59230;54.164;-3.124;2023-07-29T03:39:12;51.42;;;7.20;;
47009;SDS011;59230;54.164;-3.124;2023-07-29T03:41:38;65.20;;;7.32;;
47009;SDS011;59230;54.164;-3.124;2023-07-29T03:44:04;51.13;;;7.43;;
47009;SDS011;59230;54.164;-3.124;2023-07-29T03:46:30;56.60;;;7.00;;
47009;SDS011;59230;54.164;-3.124;2023-07-29T03:48:56;51.60;;;6.68;;
47009;SDS011;59230;54.164;-3.124;2023-07-29T03:51:22;46.55;;;6.53;;
47009;SDS011;59230;54.164;-3.124;2023-07-29T03:53:49;49.83;;;7.03;;
47009;SDS011;59230;54.164;-3.124;2023-07-29T03:56:15;52.05;;;6.13;;
47009;SDS011;59230;54.164;-3.124;2023-07-29T03:58:40;58.35;;;7.25;;
47009;SDS011;59230;54.164;-3.124;2023-07-29T04:01:05;56.78;;;6.72;;
47009;SDS011;59230;54.164;-3.124;2023-07-29T04:03:32;57.92;;;7.30;;
47009;SDS011;59230;54.164;-3.124;2023-07-29T04:05:58;69.70;;;7.50;;
47009;SDS011;59230;54.164;-3.124;2023-07-29T04:08:24;52.00;;;6.78;;
47009;SDS011;59230;54.164;-3.124;2023-07-29T04:10:49;67.13;;;6.95;;
47009;SDS011;59230;54.164;-3.124;2023-07-29T04:13:15;66.57;;;6.90;;
47009;SDS011;59230;54.164;-3.124;2023-07-29T04:15:40;50.53;;;7.63;;
47009;SDS011;59230;54.164;-3.124;2023-07-29T04:18:05;54.80;;;7.15;;
47009;SDS011;59230;54.164;-3.124;2023-07-29T04:20:31;51.70;;;6.95;;
47009;SDS011;59230;54.164;-3.124;2023-07-29T04:22:57;52.35;;;6.35;;
47009;SDS011;59230;54.164;-3.124;2023-07-29T04:25:22;63.45;;;6.80;;
47009;SDS011;59230;54.164;-3.124;2023-07-29T04:27:48;68.97;;;7.15;;
47009;SDS011;59230;54.164;-3.124;2023-07-29T04:30:13;55.63;;;7.55;;
47009;SDS011;59230;54.164;-3.124;2023-07-29T04:32:39;49.83;;;6.50;;
47009;SDS011;59230;54.164;-3.124;2023-07-29T04:35:04;60.03;;;6.50;;
47009;SDS011;59230;54.164;-3.124;2023-07-29T04:37:30;46.83;;;6.93;;
47009;SDS011;59230;54.164;-3.124;2023-07-29T04:39:55;45.70;;;6.15;;
47009;SDS011;59230;54.164;-3.124;2023-07-29T04:42:21;37.25;;;5.85;;
47009;SDS011;59230;54.164;-3.124;2023-07-29T04:44:46;39.13;;;5.85;;
47009;SDS011;59230;54.164;-3.124;2023-07-29T04:47:12;31.75;;;5.85;;
47009;SDS011;59230;54.164;-3.124;2023-07-29T04:49:37;32.97;;;5.10;;
47009;SDS011;59230;54.164;-3.124;2023-07-29T04:52:02;44.63;;;4.75;;
47009;SDS011;59230;54.164;-3.124;2023-07-29T04:54:28;33.95;;;4.68;;
47009;SDS011;59230;54.164;-3.124;2023-07-29T04:56:53;38.33;;;5.35;;
47009;SDS011;59230;54.164;-3.124;2023-07-29T04:59:19;33.58;;;4.43;;
47009;SDS011;59230;54.164;-3.124;2023-07-29T05:01:44;42.00;;;5.10;;
47009;SDS011;59230;54.164;-3.124;2023-07-29T05:04:10;35.10;;;4.57;;
47009;SDS011;59230;54.164;-3.124;2023-07-29T05:06:35;33.45;;;4.80;;
47009;SDS011;59230;54.164;-3.124;2023-07-29T05:09:12;40.33;;;4.55;;
47009;SDS011;59230;54.164;-3.124;2023-07-29T05:11:38;44.35;;;4.57;;
47009;SDS011;59230;54.164;-3.124;2023-07-29T05:14:03;37.80;;;5.15;;
47009;SDS011;59230;54.164;-3.124;2023-07-29T05:16:31;42.92;;;4.65;;
47009;SDS011;59230;54.164;-3.124;2023-07-29T05:18:56;40.97;;;4.65;;
47009;SDS011;59230;54.164;-3.124;2023-07-29T05:21:22;38.97;;;4.85;;
47009;SDS011;59230;54.164;-3.124;2023-07-29T05:23:47;25.00;;;4.50;;
47009;SDS011;59230;54.164;-3.124;2023-07-29T05:26:12;25.38;;;4.60;;
47009;SDS011;59230;54.164;-3.124;2023-07-29T05:28:38;37.78;;;4.45;;
47009;SDS011;59230;54.164;-3.124;2023-07-29T05:31:03;36.53;;;4.75;;
47009;SDS011;59230;54.164;-3.124;2023-07-29T05:33:29;36.38;;;4.50;;
47009;SDS011;59230;54.164;-3.124;2023-07-29T05:35:54;41.17;;;4.68;;
47009;SDS011;59230;54.164;-3.124;2023-07-29T05:38:20;30.23;;;4.40;;
47009;SDS011;59230;54.164;-3.124;2023-07-29T05:40:47;38.85;;;5.05;;
47009;SDS011;59230;54.164;-3.124;2023-07-29T05:43:13;32.38;;;5.10;;
47009;SDS011;59230;54.164;-3.124;2023-07-29T05:45:39;48.65;;;5.20;;
47009;SDS011;59230;54.164;-3.124;2023-07-29T05:48:05;38.78;;;5.70;;
47009;SDS011;59230;54.164;-3.124;2023-07-29T05:50:30;37.35;;;5.57;;
47009;SDS011;59230;54.164;-3.124;2023-07-29T05:52:56;35.35;;;5.20;;
47009;SDS011;59230;54.164;-3.124;2023-07-29T05:55:21;32.25;;;5.15;;
47009;SDS011;59230;54.164;-3.124;2023-07-29T05:57:46;27.90;;;4.53;;
47009;SDS011;59230;54.164;-3.124;2023-07-29T06:00:12;34.53;;;5.25;;
47009;SDS011;59230;54.164;-3.124;2023-07-29T06:02:37;31.30;;;4.47;;
47009;SDS011;59230;54.164;-3.124;2023-07-29T06:05:03;36.83;;;5.05;;
47009;SDS011;59230;54.164;-3.124;2023-07-29T06:07:29;29.02;;;4.80;;
47009;SDS011;59230;54.164;-3.124;2023-07-29T06:09:57;27.83;;;5.07;;
47009;SDS011;59230;54.164;-3.124;2023-07-29T06:12:23;33.83;;;4.43;;
47009;SDS011;59230;54.164;-3.124;2023-07-29T06:14:48;39.28;;;4.82;;
47009;SDS011;59230;54.164;-3.124;2023-07-29T06:17:13;42.63;;;5.95;;
47009;SDS011;59230;54.164;-3.124;2023-07-29T06:19:39;33.78;;;5.10;;
47009;SDS011;59230;54.164;-3.124;2023-07-29T06:22:04;33.85;;;5.15;;
47009;SDS011;59230;54.164;-3.124;2023-07-29T06:24:30;42.95;;;5.97;;
47009;SDS011;59230;54.164;-3.124;2023-07-29T06:26:56;47.17;;;5.90;;
47009;SDS011;59230;54.164;-3.124;2023-07-29T06:29:21;36.35;;;5.22;;
47009;SDS011;59230;54.164;-3.124;2023-07-29T06:31:47;38.60;;;5.38;;
47009;SDS011;59230;54.164;-3.124;2023-07-29T06:34:12;26.80;;;4.68;;
47009;SDS011;59230;54.164;-3.124;2023-07-29T06:36:37;43.03;;;4.75;;
47009;SDS011;59230;54.164;-3.124;2023-07-29T06:39:03;40.92;;;5.95;;
47009;SDS011;59230;54.164;-3.124;2023-07-29T06:41:28;30.98;;;4.43;;
47009;SDS011;59230;54.164;-3.124;2023-07-29T06:43:54;45.03;;;5.32;;
47009;SDS011;59230;54.164;-3.124;2023-07-29T06:46:19;42.20;;;5.60;;
47009;SDS011;59230;54.164;-3.124;2023-07-29T06:48:45;33.95;;;5.28;;
47009;SDS011;59230;54.164;-3.124;2023-07-29T06:51:10;37.58;;;5.85;;
47009;SDS011;59230;54.164;-3.124;2023-07-29T06:53:35;38.33;;;5.07;;
47009;SDS011;59230;54.164;-3.124;2023-07-29T06:56:01;34.38;;;5.07;;
47009;SDS011;59230;54.164;-3.124;2023-07-29T06:58:27;44.10;;;5.13;;
47009;SDS011;59230;54.164;-3.124;2023-07-29T07:00:52;37.40;;;5.70;;
47009;SDS011;59230;54.164;-3.124;2023-07-29T07:03:18;37.25;;;4.90;;
47009;SDS011;59230;54.164;-3.124;2023-07-29T07:05:43;27.38;;;4.90;;
47009;SDS011;59230;54.164;-3.124;2023-07-29T07:08:09;30.50;;;4.82;;
47009;SDS011;59230;54.164;-3.124;2023-07-29T07:10:34;33.10;;;5.40;;
47009;SDS011;59230;54.164;-3.124;2023-07-29T07:13:05;34.40;;;4.95;;
47009;SDS011;59230;54.164;-3.124;2023-07-29T07:18:51;30.45;;;4.93;;
47009;SDS011;59230;54.164;-3.124;2023-07-29T07:25:08;26.92;;;4.88;;
47009;SDS011;59230;54.164;-3.124;2023-07-29T07:28:03;23.00;;;4.13;;
47009;SDS011;59230;54.164;-3.124;2023-07-29T07:30:28;22.42;;;3.92;;
47009;SDS011;59230;54.164;-3.124;2023-07-29T07:32:54;27.17;;;4.85;;
47009;SDS011;59230;54.164;-3.124;2023-07-29T07:35:19;31.98;;;4.10;;
47009;SDS011;59230;54.164;-3.124;2023-07-29T07:37:44;28.02;;;4.80;;
47009;SDS011;59230;54.164;-3.124;2023-07-29T07:40:10;28.48;;;4.60;;
47009;SDS011;59230;54.164;-3.124;2023-07-29T07:42:36;32.08;;;4.93;;
47009;SDS011;59230;54.164;-3.124;2023-07-29T07:45:01;31.40;;;4.93;;
47009;SDS011;59230;54.164;-3.124;2023-07-29T07:47:27;30.73;;;4.70;;
47009;SDS011;59230;54.164;-3.124;2023-07-29T07:49:52;28.75;;;4.78;;
47009;SDS011;59230;54.164;-3.124;2023-07-29T07:52:17;23.83;;;3.47;;
47009;SDS011;59230;54.164;-3.124;2023-07-29T07:54:45;19.48;;;3.67;;
47009;SDS011;59230;54.164;-3.124;2023-07-29T07:57:11;26.60;;;4.03;;
47009;SDS011;59230;54.164;-3.124;2023-07-29T07:59:36;26.40;;;4.38;;
47009;SDS011;59230;54.164;-3.124;2023-07-29T08:02:02;23.58;;;4.13;;
47009;SDS011;59230;54.164;-3.124;2023-07-29T08:04:28;30.63;;;5.57;;
47009;SDS011;59230;54.164;-3.124;2023-07-29T08:06:53;28.50;;;4.32;;
47009;SDS011;59230;54.164;-3.124;2023-07-29T08:09:18;27.00;;;4.00;;
47009;SDS011;59230;54.164;-3.124;2023-07-29T08:11:44;30.35;;;4.10;;
47009;SDS011;59230;54.164;-3.124;2023-07-29T08:14:09;22.27;;;3.40;;
47009;SDS011;59230;54.164;-3.124;2023-07-29T08:16:35;23.20;;;3.88;;
47009;SDS011;59230;54.164;-3.124;2023-07-29T08:19:00;29.05;;;3.92;;
47009;SDS011;59230;54.164;-3.124;2023-07-29T08:21:26;24.70;;;3.50;;
47009;SDS011;59230;54.164;-3.124;2023-07-29T08:23:52;29.63;;;3.88;;
47009;SDS011;59230;54.164;-3.124;2023-07-29T08:26:20;28.85;;;3.40;;
47009;SDS011;59230;54.164;-3.124;2023-07-29T08:28:46;26.25;;;3.75;;
47009;SDS011;59230;54.164;-3.124;2023-07-29T08:31:20;21.20;;;3.13;;
47009;SDS011;59230;54.164;-3.124;2023-07-29T08:34:23;19.08;;;3.63;;
47009;SDS011;59230;54.164;-3.124;2023-07-29T08:37:08;24.33;;;3.72;;
47009;SDS011;59230;54.164;-3.124;2023-07-29T08:39:33;24.10;;;3.75;;
47009;SDS011;59230;54.164;-3.124;2023-07-29T08:44:41;25.02;;;3.50;;
47009;SDS011;59230;54.164;-3.124;2023-07-29T08:47:08;16.80;;;3.08;;
47009;SDS011;59230;54.164;-3.124;2023-07-29T08:49:34;19.67;;;3.95;;
47009;SDS011;59230;54.164;-3.124;2023-07-29T08:52:00;20.05;;;3.13;;
47009;SDS011;59230;54.164;-3.124;2023-07-29T08:54:26;19.63;;;3.50;;
47009;SDS011;59230;54.164;-3.124;2023-07-29T09:04:14;27.75;;;4.15;;
47009;SDS011;59230;54.164;-3.124;2023-07-29T09:07:11;26.23;;;4.07;;
47009;SDS011;59230;54.164;-3.124;2023-07-29T09:23:41;15.77;;;3.45;;
47009;SDS011;59230;54.164;-3.124;2023-07-29T09:26:27;22.30;;;4.28;;
47009;SDS011;59230;54.164;-3.124;2023-07-29T09:28:56;18.08;;;3.67;;
47009;SDS011;59230;54.164;-3.124;2023-07-29T09:31:23;22.83;;;3.42;;
47009;SDS011;59230;54.164;-3.124;2023-07-29T09:33:53;23.50;;;3.28;;
47009;SDS011;59230;54.164;-3.124;2023-07-29T09:43:59;22.87;;;3.80;;
47009;SDS011;59230;54.164;-3.124;2023-07-29T09:53:20;17.08;;;3.53;;
47009;SDS011;59230;54.164;-3.124;2023-07-29T09:55:57;19.58;;;3.47;;
47009;SDS011;59230;54.164;-3.124;2023-07-29T09:58:26;23.42;;;3.80;;
47009;SDS011;59230;54.164;-3.124;2023-07-29T10:15:31;27.00;;;4.45;;
47009;SDS011;59230;54.164;-3.124;2023-07-29T10:17:59;18.10;;;3.53;;
47009;SDS011;59230;54.164;-3.124;2023-07-29T10:20:27;17.50;;;3.50;;
47009;SDS011;59230;54.164;-3.124;2023-07-29T10:23:00;17.83;;;3.60;;
47009;SDS011;59230;54.164;-3.124;2023-07-29T10:28:36;24.20;;;4.10;;
47009;SDS011;59230;54.164;-3.124;2023-07-29T10:31:10;20.52;;;3.53;;
47009;SDS011;59230;54.164;-3.124;2023-07-29T10:33:37;23.13;;;3.20;;
47009;SDS011;59230;54.164;-3.124;2023-07-29T10:36:17;17.48;;;3.50;;
47009;SDS011;59230;54.164;-3.124;2023-07-29T10:38:44;17.83;;;3.45;;
47009;SDS011;59230;54.164;-3.124;2023-07-29T10:41:10;17.02;;;3.08;;
47009;SDS011;59230;54.164;-3.124;2023-07-29T10:43:37;18.48;;;2.95;;
47009;SDS011;59230;54.164;-3.124;2023-07-29T10:46:19;22.90;;;3.47;;
47009;SDS011;59230;54.164;-3.124;2023-07-29T10:54:17;19.67;;;3.40;;
47009;SDS011;59230;54.164;-3.124;2023-07-29T10:56:49;22.05;;;4.47;;
47009;SDS011;59230;54.164;-3.124;2023-07-29T11:01:58;14.98;;;3.10;;
47009;SDS011;59230;54.164;-3.124;2023-07-29T11:04:24;13.80;;;3.15;;
47009;SDS011;59230;54.164;-3.124;2023-07-29T11:15:15;18.15;;;3.22;;
47009;SDS011;59230;54.164;-3.124;2023-07-29T11:17:49;20.83;;;3.42;;
47009;SDS011;59230;54.164;-3.124;2023-07-29T11:20:24;17.92;;;3.78;;
47009;SDS011;59230;54.164;-3.124;2023-07-29T11:22:58;15.27;;;2.55;;
47009;SDS011;59230;54.164;-3.124;2023-07-29T11:25:35;16.63;;;2.88;;
47009;SDS011;59230;54.164;-3.124;2023-07-29T11:28:02;17.08;;;3.30;;
47009;SDS011;59230;54.164;-3.124;2023-07-29T11:30:34;24.75;;;3.28;;
47009;SDS011;59230;54.164;-3.124;2023-07-29T11:33:03;17.35;;;3.63;;
47009;SDS011;59230;54.164;-3.124;2023-07-29T11:35:31;20.63;;;3.63;;
47009;SDS011;59230;54.164;-3.124;2023-07-29T11:37:59;19.17;;;3.47;;
47009;SDS011;59230;54.164;-3.124;2023-07-29T11:40:25;19.65;;;3.72;;
47009;SDS011;59230;54.164;-3.124;2023-07-29T11:42:55;20.65;;;3.42;;
47009;SDS011;59230;54.164;-3.124;2023-07-29T11:45:23;19.17;;;3.63;;
47009;SDS011;59230;54.164;-3.124;2023-07-29T11:47:50;18.35;;;3.17;;
47009;SDS011;59230;54.164;-3.124;2023-07-29T11:50:18;16.98;;;3.80;;
47009;SDS011;59230;54.164;-3.124;2023-07-29T11:52:47;15.75;;;3.30;;
47009;SDS011;59230;54.164;-3.124;2023-07-29T11:55:15;24.48;;;3.50;;
47009;SDS011;59230;54.164;-3.124;2023-07-29T11:57:41;26.02;;;4.35;;
47009;SDS011;59230;54.164;-3.124;2023-07-29T12:00:08;21.02;;;3.67;;
47009;SDS011;59230;54.164;-3.124;2023-07-29T12:02:42;23.35;;;3.55;;
47009;SDS011;59230;54.164;-3.124;2023-07-29T12:05:12;22.92;;;4.53;;
47009;SDS011;59230;54.164;-3.124;2023-07-29T12:07:43;21.10;;;4.03;;
47009;SDS011;59230;54.164;-3.124;2023-07-29T12:10:12;17.60;;;3.42;;
47009;SDS011;59230;54.164;-3.124;2023-07-29T12:12:49;18.05;;;3.17;;
47009;SDS011;59230;54.164;-3.124;2023-07-29T12:15:27;19.38;;;3.03;;
47009;SDS011;59230;54.164;-3.124;2023-07-29T12:17:58;16.10;;;2.83;;
47009;SDS011;59230;54.164;-3.124;2023-07-29T12:20:25;17.10;;;2.95;;
47009;SDS011;59230;54.164;-3.124;2023-07-29T12:22:53;20.48;;;3.97;;
47009;SDS011;59230;54.164;-3.124;2023-07-29T12:25:22;24.63;;;4.22;;
47009;SDS011;59230;54.164;-3.124;2023-07-29T12:27:49;21.48;;;4.18;;
47009;SDS011;59230;54.164;-3.124;2023-07-29T12:30:14;19.83;;;3.72;;
47009;SDS011;59230;54.164;-3.124;2023-07-29T12:32:49;15.68;;;2.88;;
47009;SDS011;59230;54.164;-3.124;2023-07-29T12:35:14;21.02;;;3.70;;
47009;SDS011;59230;54.164;-3.124;2023-07-29T12:37:40;16.60;;;3.15;;
47009;SDS011;59230;54.164;-3.124;2023-07-29T12:42:51;19.73;;;3.75;;
47009;SDS011;59230;54.164;-3.124;2023-07-29T12:45:17;17.77;;;3.70;;
47009;SDS011;59230;54.164;-3.124;2023-07-29T12:47:44;19.73;;;3.65;;
47009;SDS011;59230;54.164;-3.124;2023-07-29T12:50:12;19.45;;;3.40;;
47009;SDS011;59230;54.164;-3.124;2023-07-29T12:52:39;21.88;;;3.20;;
47009;SDS011;59230;54.164;-3.124;2023-07-29T12:55:07;19.27;;;3.78;;
47009;SDS011;59230;54.164;-3.124;2023-07-29T12:57:34;16.23;;;3.38;;
47009;SDS011;59230;54.164;-3.124;2023-07-29T13:00:03;18.15;;;3.40;;
47009;SDS011;59230;54.164;-3.124;2023-07-29T13:02:31;18.63;;;2.95;;
47009;SDS011;59230;54.164;-3.124;2023-07-29T13:05:00;18.98;;;2.92;;
47009;SDS011;59230;54.164;-3.124;2023-07-29T13:07:26;11.30;;;2.58;;
47009;SDS011;59230;54.164;-3.124;2023-07-29T13:09:55;12.95;;;2.20;;
47009;SDS011;59230;54.164;-3.124;2023-07-29T13:12:21;17.38;;;2.72;;
47009;SDS011;59230;54.164;-3.124;2023-07-29T13:14:46;18.52;;;3.13;;
47009;SDS011;59230;54.164;-3.124;2023-07-29T13:17:13;18.65;;;3.33;;
47009;SDS011;59230;54.164;-3.124;2023-07-29T13:19:38;14.35;;;2.70;;
47009;SDS011;59230;54.164;-3.124;2023-07-29T13:22:06;15.15;;;3.30;;
47009;SDS011;59230;54.164;-3.124;2023-07-29T13:24:32;18.00;;;2.72;;
47009;SDS011;59230;54.164;-3.124;2023-07-29T13:26:59;13.77;;;2.80;;
47009;SDS011;59230;54.164;-3.124;2023-07-29T13:29:25;17.85;;;2.47;;
47009;SDS011;59230;54.164;-3.124;2023-07-29T13:31:52;16.75;;;2.58;;
47009;SDS011;59230;54.164;-3.124;2023-07-29T13:34:17;14.88;;;2.83;;
47009;SDS011;59230;54.164;-3.124;2023-07-29T13:36:44;16.38;;;2.55;;
47009;SDS011;59230;54.164;-3.124;2023-07-29T13:39:11;14.52;;;2.63;;
47009;SDS011;59230;54.164;-3.124;2023-07-29T13:41:41;16.02;;;2.88;;
47009;SDS011;59230;54.164;-3.124;2023-07-29T13:44:07;16.40;;;3.20;;
47009;SDS011;59230;54.164;-3.124;2023-07-29T13:46:36;17.65;;;3.85;;
47009;SDS011;59230;54.164;-3.124;2023-07-29T13:49:03;17.17;;;3.05;;
47009;SDS011;59230;54.164;-3.124;2023-07-29T13:51:29;19.30;;;2.50;;
47009;SDS011;59230;54.164;-3.124;2023-07-29T13:53:58;14.05;;;2.90;;
47009;SDS011;59230;54.164;-3.124;2023-07-29T13:56:25;14.23;;;2.97;;
47009;SDS011;59230;54.164;-3.124;2023-07-29T13:58:53;12.52;;;2.35;;
47009;SDS011;59230;54.164;-3.124;2023-07-29T14:01:18;20.65;;;2.95;;
47009;SDS011;59230;54.164;-3.124;2023-07-29T14:03:45;14.43;;;2.92;;
47009;SDS011;59230;54.164;-3.124;2023-07-29T14:06:12;16.00;;;3.13;;
47009;SDS011;59230;54.164;-3.124;2023-07-29T14:08:40;16.92;;;3.05;;
47009;SDS011;59230;54.164;-3.124;2023-07-29T14:11:08;16.88;;;2.83;;
47009;SDS011;59230;54.164;-3.124;2023-07-29T14:13:36;14.18;;;2.65;;
47009;SDS011;59230;54.164;-3.124;2023-07-29T14:16:03;12.98;;;2.70;;
47009;SDS011;59230;54.164;-3.124;2023-07-29T14:18:29;24.60;;;3.65;;
47009;SDS011;59230;54.164;-3.124;2023-07-29T14:20:55;14.07;;;2.47;;
47009;SDS011;59230;54.164;-3.124;2023-07-29T14:23:23;21.90;;;3.67;;
47009;SDS011;59230;54.164;-3.124;2023-07-29T14:25:51;17.38;;;2.97;;
47009;SDS011;59230;54.164;-3.124;2023-07-29T14:28:19;19.85;;;3.55;;
47009;SDS011;59230;54.164;-3.124;2023-07-29T14:30:45;19.63;;;3.45;;
47009;SDS011;59230;54.164;-3.124;2023-07-29T14:33:14;17.92;;;3.58;;
47009;SDS011;59230;54.164;-3.124;2023-07-29T14:35:42;11.40;;;3.15;;
47009;SDS011;59230;54.164;-3.124;2023-07-29T14:38:09;16.95;;;2.88;;
47009;SDS011;59230;54.164;-3.124;2023-07-29T14:40:38;26.02;;;3.58;;
47009;SDS011;59230;54.164;-3.124;2023-07-29T14:43:04;14.43;;;2.60;;
47009;SDS011;59230;54.164;-3.124;2023-07-29T14:45:33;21.33;;;3.65;;
47009;SDS011;59230;54.164;-3.124;2023-07-29T14:48:00;12.65;;;2.65;;
47009;SDS011;59230;54.164;-3.124;2023-07-29T14:50:26;18.70;;;3.10;;
47009;SDS011;59230;54.164;-3.124;2023-07-29T14:52:54;15.40;;;3.10;;
47009;SDS011;59230;54.164;-3.124;2023-07-29T14:55:22;15.68;;;2.83;;
47009;SDS011;59230;54.164;-3.124;2023-07-29T14:57:47;18.58;;;3.03;;
47009;SDS011;59230;54.164;-3.124;2023-07-29T15:00:13;18.42;;;2.58;;
47009;SDS011;59230;54.164;-3.124;2023-07-29T15:02:40;22.70;;;3.17;;
47009;SDS011;59230;54.164;-3.124;2023-07-29T15:05:06;19.00;;;3.72;;
47009;SDS011;59230;54.164;-3.124;2023-07-29T15:07:35;20.50;;;2.88;;
47009;SDS011;59230;54.164;-3.124;2023-07-29T15:10:00;17.02;;;3.17;;
47009;SDS011;59230;54.164;-3.124;2023-07-29T15:12:28;21.58;;;4.03;;
47009;SDS011;59230;54.164;-3.124;2023-07-29T15:14:55;17.80;;;2.88;;
47009;SDS011;59230;54.164;-3.124;2023-07-29T15:17:22;17.95;;;2.95;;
47009;SDS011;59230;54.164;-3.124;2023-07-29T15:19:49;18.60;;;3.00;;
47009;SDS011;59230;54.164;-3.124;2023-07-29T15:22:15;19.75;;;3.00;;
47009;SDS011;59230;54.164;-3.124;2023-07-29T15:24:41;23.50;;;3.47;;
47009;SDS011;59230;54.164;-3.124;2023-07-29T15:27:10;20.75;;;3.53;;
47009;SDS011;59230;54.164;-3.124;2023-07-29T15:29:36;23.75;;;3.25;;
47009;SDS011;59230;54.164;-3.124;2023-07-29T15:32:03;12.30;;;3.08;;
47009;SDS011;59230;54.164;-3.124;2023-07-29T15:34:30;22.90;;;4.13;;
47009;SDS011;59230;54.164;-3.124;2023-07-29T15:37:02;20.83;;;4.22;;
47009;SDS011;59230;54.164;-3.124;2023-07-29T15:39:28;12.95;;;2.72;;
47009;SDS011;59230;54.164;-3.124;2023-07-29T15:41:53;19.33;;;3.58;;
47009;SDS011;59230;54.164;-3.124;2023-07-29T15:44:19;27.85;;;4.57;;
47009;SDS011;59230;54.164;-3.124;2023-07-29T15:46:46;19.50;;;3.20;;
47009;SDS011;59230;54.164;-3.124;2023-07-29T15:49:14;18.45;;;3.00;;
47009;SDS011;59230;54.164;-3.124;2023-07-29T15:51:40;21.88;;;4.13;;
47009;SDS011;59230;54.164;-3.124;2023-07-29T15:54:07;18.13;;;3.83;;